sensor_id;sensor_type;location;lat;lon;timestamp;pressure;altitude;pressure_sealevel;temperature
69186;BMP280;56298;49.246;9.410;2023-06-26T00:01:37;99384.31;;;18.97
69186;BMP280;56298;49.246;9.410;2023-06-26T00:04:05;99371.78;;;18.82
69186;BMP280;56298;49.246;9.410;2023-06-26T00:06:30;99377.59;;;18.95
69186;BMP280;56298;49.246;9.410;2023-06-26T00:08:56;99380.78;;;18.93
69186;BMP280;56298;49.246;9.410;2023-06-26T00:11:23;99372.84;;;18.92
69186;BMP280;56298;49.246;9.410;2023-06-26T00:13:50;99373.31;;;18.90
69186;BMP280;56298;49.246;9.410;2023-06-26T00:16:15;99387.34;;;18.72
69186;BMP280;56298;49.246;9.410;2023-06-26T00:18:40;99388.91;;;18.77
69186;BMP280;56298;49.246;9.410;2023-06-26T00:21:06;99385.31;;;18.80
69186;BMP280;56298;49.246;9.410;2023-06-26T00:23:31;99376.56;;;18.81
69186;BMP280;56298;49.246;9.410;2023-06-26T00:25:58;99393.78;;;18.65
69186;BMP280;56298;49.246;9.410;2023-06-26T00:28:23;99388.75;;;18.56
69186;BMP280;56298;49.246;9.410;2023-06-26T00:30:48;99399.16;;;18.45
69186;BMP280;56298;49.246;9.410;2023-06-26T00:33:13;99387.09;;;18.59
69186;BMP280;56298;49.246;9.410;2023-06-26T00:35:39;99391.47;;;18.60
69186;BMP280;56298;49.246;9.410;2023-06-26T00:38:04;99390.25;;;18.65
69186;BMP280;56298;49.246;9.410;2023-06-26T00:40:29;99389.09;;;18.58
69186;BMP280;56298;49.246;9.410;2023-06-26T00:42:55;99385.97;;;18.53
69186;BMP280;56298;49.246;9.410;2023-06-26T00:45:20;99388.00;;;18.49
69186;BMP280;56298;49.246;9.410;2023-06-26T00:47:45;99387.59;;;18.50
69186;BMP280;56298;49.246;9.410;2023-06-26T00:50:11;99381.69;;;18.44
69186;BMP280;56298;49.246;9.410;2023-06-26T00:52:37;99383.81;;;18.29
69186;BMP280;56298;49.246;9.410;2023-06-26T00:55:02;99381.03;;;18.29
69186;BMP280;56298;49.246;9.410;2023-06-26T00:57:29;99379.44;;;18.32
69186;BMP280;56298;49.246;9.410;2023-06-26T00:59:55;99383.78;;;18.37
69186;BMP280;56298;49.246;9.410;2023-06-26T01:02:20;99377.78;;;18.38
69186;BMP280;56298;49.246;9.410;2023-06-26T01:04:50;99385.00;;;18.28
69186;BMP280;56298;49.246;9.410;2023-06-26T01:07:16;99381.91;;;18.19
69186;BMP280;56298;49.246;9.410;2023-06-26T01:09:44;99383.97;;;18.11
69186;BMP280;56298;49.246;9.410;2023-06-26T01:12:10;99377.22;;;18.12
69186;BMP280;56298;49.246;9.410;2023-06-26T01:14:35;99375.25;;;18.09
69186;BMP280;56298;49.246;9.410;2023-06-26T01:17:02;99376.53;;;18.01
69186;BMP280;56298;49.246;9.410;2023-06-26T01:19:28;99372.31;;;17.78
69186;BMP280;56298;49.246;9.410;2023-06-26T01:21:59;99373.09;;;17.82
69186;BMP280;56298;49.246;9.410;2023-06-26T01:24:32;99368.28;;;17.83
69186;BMP280;56298;49.246;9.410;2023-06-26T01:26:59;99371.91;;;17.80
69186;BMP280;56298;49.246;9.410;2023-06-26T01:29:25;99360.44;;;17.78
69186;BMP280;56298;49.246;9.410;2023-06-26T01:31:51;99364.75;;;17.79
69186;BMP280;56298;49.246;9.410;2023-06-26T01:34:17;99360.00;;;17.79
69186;BMP280;56298;49.246;9.410;2023-06-26T01:36:44;99363.59;;;17.76
69186;BMP280;56298;49.246;9.410;2023-06-26T01:39:09;99358.84;;;17.77
69186;BMP280;56298;49.246;9.410;2023-06-26T01:41:34;99359.25;;;17.75
69186;BMP280;56298;49.246;9.410;2023-06-26T01:47:03;99364.47;;;17.66
69186;BMP280;56298;49.246;9.410;2023-06-26T01:49:49;99359.31;;;17.68
69186;BMP280;56298;49.246;9.410;2023-06-26T01:52:22;99359.31;;;17.68
69186;BMP280;56298;49.246;9.410;2023-06-26T01:54:58;99352.97;;;17.67
69186;BMP280;56298;49.246;9.410;2023-06-26T01:57:27;99356.56;;;17.61
69186;BMP280;56298;49.246;9.410;2023-06-26T01:59:54;99350.25;;;17.56
69186;BMP280;56298;49.246;9.410;2023-06-26T02:02:23;99348.69;;;17.48
69186;BMP280;56298;49.246;9.410;2023-06-26T02:04:48;99347.09;;;17.54
69186;BMP280;56298;49.246;9.410;2023-06-26T02:07:14;99344.41;;;17.40
69186;BMP280;56298;49.246;9.410;2023-06-26T02:09:39;99342.81;;;17.46
69186;BMP280;56298;49.246;9.410;2023-06-26T02:12:05;99342.03;;;17.38
69186;BMP280;56298;49.246;9.410;2023-06-26T02:14:30;99353.13;;;17.42
69186;BMP280;56298;49.246;9.410;2023-06-26T02:16:55;99346.84;;;17.31
69186;BMP280;56298;49.246;9.410;2023-06-26T02:19:21;99348.47;;;17.21
69186;BMP280;56298;49.246;9.410;2023-06-26T02:21:48;99347.63;;;17.27
69186;BMP280;56298;49.246;9.410;2023-06-26T02:24:14;99345.28;;;17.26
69186;BMP280;56298;49.246;9.410;2023-06-26T02:26:39;99346.09;;;17.19
69186;BMP280;56298;49.246;9.410;2023-06-26T02:29:04;99345.75;;;17.10
69186;BMP280;56298;49.246;9.410;2023-06-26T02:31:30;99342.97;;;17.06
69186;BMP280;56298;49.246;9.410;2023-06-26T02:33:55;99342.22;;;16.98
69186;BMP280;56298;49.246;9.410;2023-06-26T02:36:20;99340.25;;;16.92
69186;BMP280;56298;49.246;9.410;2023-06-26T02:38:45;99342.66;;;16.93
69186;BMP280;56298;49.246;9.410;2023-06-26T02:41:11;99336.22;;;17.07
69186;BMP280;56298;49.246;9.410;2023-06-26T02:43:36;99337.81;;;17.08
69186;BMP280;56298;49.246;9.410;2023-06-26T02:46:01;99336.31;;;17.00
69186;BMP280;56298;49.246;9.410;2023-06-26T02:48:27;99331.53;;;16.97
69186;BMP280;56298;49.246;9.410;2023-06-26T02:50:52;99335.91;;;16.91
69186;BMP280;56298;49.246;9.410;2023-06-26T02:53:17;99343.88;;;16.81
69186;BMP280;56298;49.246;9.410;2023-06-26T02:55:42;99338.28;;;16.85
69186;BMP280;56298;49.246;9.410;2023-06-26T02:58:07;99332.78;;;16.81
69186;BMP280;56298;49.246;9.410;2023-06-26T03:00:33;99332.38;;;16.83
69186;BMP280;56298;49.246;9.410;2023-06-26T03:02:58;99332.38;;;16.79
69186;BMP280;56298;49.246;9.410;2023-06-26T03:05:24;99331.97;;;16.81
69186;BMP280;56298;49.246;9.410;2023-06-26T03:07:50;99327.63;;;16.83
69186;BMP280;56298;49.246;9.410;2023-06-26T03:10:15;99319.72;;;16.86
69186;BMP280;56298;49.246;9.410;2023-06-26T03:12:40;99324.06;;;16.83
69186;BMP280;56298;49.246;9.410;2023-06-26T03:15:06;99324.06;;;16.79
69186;BMP280;56298;49.246;9.410;2023-06-26T03:17:31;99324.91;;;16.65
69186;BMP280;56298;49.246;9.410;2023-06-26T03:19:56;99326.09;;;16.64
69186;BMP280;56298;49.246;9.410;2023-06-26T03:22:22;99328.84;;;16.72
69186;BMP280;56298;49.246;9.410;2023-06-26T03:24:47;99334.00;;;16.73
69186;BMP280;56298;49.246;9.410;2023-06-26T03:27:12;99332.03;;;16.52
69186;BMP280;56298;49.246;9.410;2023-06-26T03:29:37;99337.56;;;16.52
69186;BMP280;56298;49.246;9.410;2023-06-26T03:32:03;99337.56;;;16.66
69186;BMP280;56298;49.246;9.410;2023-06-26T03:34:28;99343.50;;;16.61
69186;BMP280;56298;49.246;9.410;2023-06-26T03:36:53;99341.16;;;16.56
69186;BMP280;56298;49.246;9.410;2023-06-26T03:39:18;99340.31;;;16.59
69186;BMP280;56298;49.246;9.410;2023-06-26T03:41:44;99339.53;;;16.69
69186;BMP280;56298;49.246;9.410;2023-06-26T03:44:09;99341.50;;;16.58
69186;BMP280;56298;49.246;9.410;2023-06-26T03:46:34;99347.44;;;16.64
69186;BMP280;56298;49.246;9.410;2023-06-26T03:48:59;99341.94;;;16.53
69186;BMP280;56298;49.246;9.410;2023-06-26T04:53:35;99370.31;;;17.82
69186;BMP280;56298;49.246;9.410;2023-06-26T04:56:00;99369.47;;;17.89
69186;BMP280;56298;49.246;9.410;2023-06-26T04:58:26;99365.88;;;17.92
69186;BMP280;56298;49.246;9.410;2023-06-26T05:00:51;99362.53;;;18.15
69186;BMP280;56298;49.246;9.410;2023-06-26T05:03:17;99354.81;;;18.34
69186;BMP280;56298;49.246;9.410;2023-06-26T05:05:43;99356.09;;;18.64
69186;BMP280;56298;49.246;9.410;2023-06-26T05:08:20;99362.47;;;18.96
69186;BMP280;56298;49.246;9.410;2023-06-26T05:10:45;99368.94;;;18.89
69186;BMP280;56298;49.246;9.410;2023-06-26T05:13:11;99360.09;;;18.98
69186;BMP280;56298;49.246;9.410;2023-06-26T05:15:36;99365.09;;;19.10
69186;BMP280;56298;49.246;9.410;2023-06-26T05:18:02;99359.69;;;19.58
69186;BMP280;56298;49.246;9.410;2023-06-26T05:20:27;99358.88;;;20.32
69186;BMP280;56298;49.246;9.410;2023-06-26T05:22:53;99358.28;;;21.22
69186;BMP280;56298;49.246;9.410;2023-06-26T05:25:19;99361.56;;;21.87
69186;BMP280;56298;49.246;9.410;2023-06-26T05:27:47;99364.34;;;22.62
69186;BMP280;56298;49.246;9.410;2023-06-26T05:30:13;99354.13;;;23.37
69186;BMP280;56298;49.246;9.410;2023-06-26T05:32:40;99350.44;;;23.88
69186;BMP280;56298;49.246;9.410;2023-06-26T05:35:06;99359.50;;;24.27
69186;BMP280;56298;49.246;9.410;2023-06-26T05:37:32;99360.88;;;24.76
69186;BMP280;56298;49.246;9.410;2023-06-26T05:39:58;99359.59;;;25.40
69186;BMP280;56298;49.246;9.410;2023-06-26T05:42:23;99359.75;;;25.46
69186;BMP280;56298;49.246;9.410;2023-06-26T05:44:49;99357.13;;;26.26
69186;BMP280;56298;49.246;9.410;2023-06-26T05:47:14;99366.72;;;26.62
69186;BMP280;56298;49.246;9.410;2023-06-26T05:49:40;99368.66;;;27.72
69186;BMP280;56298;49.246;9.410;2023-06-26T05:52:05;99365.53;;;28.24
69186;BMP280;56298;49.246;9.410;2023-06-26T05:54:31;99362.22;;;29.06
69186;BMP280;56298;49.246;9.410;2023-06-26T05:56:57;99359.13;;;29.72
69186;BMP280;56298;49.246;9.410;2023-06-26T05:59:26;99359.34;;;30.15
69186;BMP280;56298;49.246;9.410;2023-06-26T06:01:54;99359.81;;;30.45
69186;BMP280;56298;49.246;9.410;2023-06-26T06:04:19;99357.31;;;30.97
69186;BMP280;56298;49.246;9.410;2023-06-26T06:06:45;99361.06;;;31.25
69186;BMP280;56298;49.246;9.410;2023-06-26T06:09:10;99358.06;;;31.57
69186;BMP280;56298;49.246;9.410;2023-06-26T06:11:35;99362.03;;;32.05
69186;BMP280;56298;49.246;9.410;2023-06-26T06:14:00;99354.53;;;32.02
69186;BMP280;56298;49.246;9.410;2023-06-26T06:16:26;99360.13;;;32.65
69186;BMP280;56298;49.246;9.410;2023-06-26T06:18:54;99360.88;;;32.88
69186;BMP280;56298;49.246;9.410;2023-06-26T06:21:19;99357.50;;;33.48
69186;BMP280;56298;49.246;9.410;2023-06-26T06:23:44;99364.28;;;34.06
69186;BMP280;56298;49.246;9.410;2023-06-26T06:26:10;99369.72;;;34.35
69186;BMP280;56298;49.246;9.410;2023-06-26T06:28:36;99360.50;;;34.23
69186;BMP280;56298;49.246;9.410;2023-06-26T06:31:01;99364.94;;;35.50
69186;BMP280;56298;49.246;9.410;2023-06-26T06:33:26;99362.34;;;35.33
69186;BMP280;56298;49.246;9.410;2023-06-26T06:35:51;99362.34;;;35.33
69186;BMP280;56298;49.246;9.410;2023-06-26T06:38:17;99368.13;;;35.46
69186;BMP280;56298;49.246;9.410;2023-06-26T06:40:42;99375.81;;;35.84
69186;BMP280;56298;49.246;9.410;2023-06-26T06:43:07;99368.03;;;35.52
69186;BMP280;56298;49.246;9.410;2023-06-26T06:45:32;99368.03;;;35.52
69186;BMP280;56298;49.246;9.410;2023-06-26T06:48:13;99372.81;;;35.24
69186;BMP280;56298;49.246;9.410;2023-06-26T06:50:41;99372.00;;;35.10
69186;BMP280;56298;49.246;9.410;2023-06-26T06:53:07;99371.41;;;34.93
69186;BMP280;56298;49.246;9.410;2023-06-26T06:55:33;99371.34;;;35.37
69186;BMP280;56298;49.246;9.410;2023-06-26T06:57:58;99376.03;;;35.53
69186;BMP280;56298;49.246;9.410;2023-06-26T07:00:23;99369.50;;;35.01
69186;BMP280;56298;49.246;9.410;2023-06-26T07:02:48;99366.28;;;35.10
69186;BMP280;56298;49.246;9.410;2023-06-26T07:05:14;99380.75;;;34.93
69186;BMP280;56298;49.246;9.410;2023-06-26T07:07:39;99370.50;;;35.23
69186;BMP280;56298;49.246;9.410;2023-06-26T07:10:11;99367.41;;;35.21
69186;BMP280;56298;49.246;9.410;2023-06-26T07:12:37;99367.41;;;35.21
69186;BMP280;56298;49.246;9.410;2023-06-26T07:15:03;99367.31;;;35.65
69186;BMP280;56298;49.246;9.410;2023-06-26T07:17:30;99366.78;;;35.79
69186;BMP280;56298;49.246;9.410;2023-06-26T07:19:55;99366.78;;;35.79
69186;BMP280;56298;49.246;9.410;2023-06-26T07:22:21;99360.53;;;36.14
69186;BMP280;56298;49.246;9.410;2023-06-26T07:24:47;99363.19;;;36.38
69186;BMP280;56298;49.246;9.410;2023-06-26T07:27:16;99368.81;;;35.85
69186;BMP280;56298;49.246;9.410;2023-06-26T07:29:42;99362.00;;;35.88
69186;BMP280;56298;49.246;9.410;2023-06-26T07:32:08;99359.56;;;35.78
69186;BMP280;56298;49.246;9.410;2023-06-26T07:34:33;99362.59;;;36.13
69186;BMP280;56298;49.246;9.410;2023-06-26T07:36:58;99364.59;;;36.58
69186;BMP280;56298;49.246;9.410;2023-06-26T07:39:24;99356.44;;;36.76
69186;BMP280;56298;49.246;9.410;2023-06-26T07:41:49;99356.44;;;36.76
69186;BMP280;56298;49.246;9.410;2023-06-26T07:44:14;99363.88;;;36.92
69186;BMP280;56298;49.246;9.410;2023-06-26T07:46:39;99365.31;;;36.86
69186;BMP280;56298;49.246;9.410;2023-06-26T07:49:05;99372.38;;;36.85
69186;BMP280;56298;49.246;9.410;2023-06-26T07:51:30;99360.97;;;37.40
69186;BMP280;56298;49.246;9.410;2023-06-26T07:53:55;99360.97;;;37.40
69186;BMP280;56298;49.246;9.410;2023-06-26T07:56:20;99358.94;;;36.93
69186;BMP280;56298;49.246;9.410;2023-06-26T07:58:46;99351.66;;;37.48
69186;BMP280;56298;49.246;9.410;2023-06-26T08:01:11;99362.72;;;37.43
69186;BMP280;56298;49.246;9.410;2023-06-26T08:03:36;99363.75;;;36.98
69186;BMP280;56298;49.246;9.410;2023-06-26T08:06:02;99363.75;;;36.98
69186;BMP280;56298;49.246;9.410;2023-06-26T08:08:28;99362.44;;;36.99
69186;BMP280;56298;49.246;9.410;2023-06-26T08:10:53;99358.97;;;36.39
69186;BMP280;56298;49.246;9.410;2023-06-26T08:13:19;99358.97;;;36.39
69186;BMP280;56298;49.246;9.410;2023-06-26T08:15:44;99353.72;;;36.57
69186;BMP280;56298;49.246;9.410;2023-06-26T08:18:09;99362.84;;;36.55
69186;BMP280;56298;49.246;9.410;2023-06-26T08:20:34;99359.59;;;36.86
69186;BMP280;56298;49.246;9.410;2023-06-26T08:23:02;99363.25;;;36.73
69186;BMP280;56298;49.246;9.410;2023-06-26T08:25:27;99357.34;;;36.57
69186;BMP280;56298;49.246;9.410;2023-06-26T08:27:52;99353.41;;;37.08
69186;BMP280;56298;49.246;9.410;2023-06-26T08:30:19;99345.31;;;36.86
69186;BMP280;56298;49.246;9.410;2023-06-26T08:32:44;99344.84;;;37.72
69186;BMP280;56298;49.246;9.410;2023-06-26T08:35:09;99343.09;;;37.69
69186;BMP280;56298;49.246;9.410;2023-06-26T08:37:35;99343.44;;;37.86
69186;BMP280;56298;49.246;9.410;2023-06-26T08:40:01;99343.44;;;37.86
69186;BMP280;56298;49.246;9.410;2023-06-26T08:42:26;99353.50;;;38.37
69186;BMP280;56298;49.246;9.410;2023-06-26T08:44:51;99353.50;;;38.37
69186;BMP280;56298;49.246;9.410;2023-06-26T08:47:17;99343.19;;;38.34
69186;BMP280;56298;49.246;9.410;2023-06-26T08:50:04;99338.53;;;37.95
69186;BMP280;56298;49.246;9.410;2023-06-26T08:52:46;99341.88;;;38.06
69186;BMP280;56298;49.246;9.410;2023-06-26T08:55:18;99347.13;;;37.95
69186;BMP280;56298;49.246;9.410;2023-06-26T08:57:44;99343.31;;;37.92
69186;BMP280;56298;49.246;9.410;2023-06-26T09:00:09;99334.53;;;38.26
69186;BMP280;56298;49.246;9.410;2023-06-26T09:02:38;99337.06;;;38.01
69186;BMP280;56298;49.246;9.410;2023-06-26T09:05:04;99338.63;;;37.39
69186;BMP280;56298;49.246;9.410;2023-06-26T09:07:29;99339.41;;;38.10
69186;BMP280;56298;49.246;9.410;2023-06-26T09:09:55;99340.09;;;37.74
69186;BMP280;56298;49.246;9.410;2023-06-26T09:12:20;99333.31;;;38.14
69186;BMP280;56298;49.246;9.410;2023-06-26T09:14:47;99342.00;;;38.01
69186;BMP280;56298;49.246;9.410;2023-06-26T09:17:13;99340.72;;;38.09
69186;BMP280;56298;49.246;9.410;2023-06-26T09:19:38;99344.09;;;37.71
69186;BMP280;56298;49.246;9.410;2023-06-26T09:22:03;99344.09;;;37.71
69186;BMP280;56298;49.246;9.410;2023-06-26T09:24:30;99340.41;;;37.63
69186;BMP280;56298;49.246;9.410;2023-06-26T09:26:55;99337.47;;;37.34
69186;BMP280;56298;49.246;9.410;2023-06-26T09:29:20;99335.91;;;37.33
69186;BMP280;56298;49.246;9.410;2023-06-26T09:31:46;99343.66;;;36.90
69186;BMP280;56298;49.246;9.410;2023-06-26T09:34:11;99343.66;;;36.90
69186;BMP280;56298;49.246;9.410;2023-06-26T09:36:36;99342.66;;;37.01
69186;BMP280;56298;49.246;9.410;2023-06-26T09:39:03;99341.00;;;36.92
69186;BMP280;56298;49.246;9.410;2023-06-26T09:41:36;99347.78;;;36.55
69186;BMP280;56298;49.246;9.410;2023-06-26T09:44:03;99345.53;;;36.88
69186;BMP280;56298;49.246;9.410;2023-06-26T09:46:30;99343.06;;;36.57
69186;BMP280;56298;49.246;9.410;2023-06-26T09:51:32;99344.81;;;36.47
69186;BMP280;56298;49.246;9.410;2023-06-26T09:53:59;99342.19;;;36.36
69186;BMP280;56298;49.246;9.410;2023-06-26T09:56:24;99335.03;;;36.56
69186;BMP280;56298;49.246;9.410;2023-06-26T09:58:49;99341.84;;;36.39
69186;BMP280;56298;49.246;9.410;2023-06-26T10:01:15;99343.06;;;36.57
69186;BMP280;56298;49.246;9.410;2023-06-26T10:03:40;99333.81;;;36.65
69186;BMP280;56298;49.246;9.410;2023-06-26T10:06:07;99333.81;;;36.65
69186;BMP280;56298;49.246;9.410;2023-06-26T10:08:34;99333.78;;;36.78
69186;BMP280;56298;49.246;9.410;2023-06-26T10:11:00;99329.81;;;36.81
69186;BMP280;56298;49.246;9.410;2023-06-26T10:13:31;99340.84;;;36.77
69186;BMP280;56298;49.246;9.410;2023-06-26T10:16:00;99338.97;;;36.80
69186;BMP280;56298;49.246;9.410;2023-06-26T10:18:27;99338.97;;;36.80
69186;BMP280;56298;49.246;9.410;2023-06-26T10:20:55;99342.47;;;37.20
69186;BMP280;56298;49.246;9.410;2023-06-26T10:23:22;99342.47;;;37.20
69186;BMP280;56298;49.246;9.410;2023-06-26T10:25:48;99334.00;;;37.15
69186;BMP280;56298;49.246;9.410;2023-06-26T10:28:16;99326.63;;;37.40
69186;BMP280;56298;49.246;9.410;2023-06-26T10:30:43;99329.69;;;37.21
69186;BMP280;56298;49.246;9.410;2023-06-26T10:33:10;99336.88;;;37.36
69186;BMP280;56298;49.246;9.410;2023-06-26T10:35:45;99323.06;;;37.26
69186;BMP280;56298;49.246;9.410;2023-06-26T10:38:11;99326.88;;;37.08
69186;BMP280;56298;49.246;9.410;2023-06-26T10:40:47;99342.28;;;37.05
69186;BMP280;56298;49.246;9.410;2023-06-26T10:43:14;99343.78;;;37.19
69186;BMP280;56298;49.246;9.410;2023-06-26T10:45:47;99349.00;;;37.07
69186;BMP280;56298;49.246;9.410;2023-06-26T10:48:19;99349.00;;;37.07
69186;BMP280;56298;49.246;9.410;2023-06-26T10:50:48;99342.69;;;37.22
69186;BMP280;56298;49.246;9.410;2023-06-26T10:55:49;99341.16;;;37.42
69186;BMP280;56298;49.246;9.410;2023-06-26T11:03:42;99327.22;;;37.04
69186;BMP280;56298;49.246;9.410;2023-06-26T11:06:10;99337.25;;;37.32
69186;BMP280;56298;49.246;9.410;2023-06-26T11:08:45;99322.28;;;37.05
69186;BMP280;56298;49.246;9.410;2023-06-26T11:11:11;99332.16;;;36.69
69186;BMP280;56298;49.246;9.410;2023-06-26T11:13:37;99330.38;;;36.80
69186;BMP280;56298;49.246;9.410;2023-06-26T11:16:02;99330.38;;;36.80
69186;BMP280;56298;49.246;9.410;2023-06-26T11:18:28;99339.59;;;36.86
69186;BMP280;56298;49.246;9.410;2023-06-26T11:20:53;99330.13;;;37.47
69186;BMP280;56298;49.246;9.410;2023-06-26T11:23:22;99325.38;;;37.28
69186;BMP280;56298;49.246;9.410;2023-06-26T11:25:49;99348.09;;;36.51
69186;BMP280;56298;49.246;9.410;2023-06-26T11:28:14;99347.47;;;36.45
69186;BMP280;56298;49.246;9.410;2023-06-26T11:30:39;99347.47;;;36.45
69186;BMP280;56298;49.246;9.410;2023-06-26T11:33:10;99352.28;;;36.23
69186;BMP280;56298;49.246;9.410;2023-06-26T11:35:35;99352.28;;;36.23
69186;BMP280;56298;49.246;9.410;2023-06-26T11:38:02;99351.63;;;36.17
69186;BMP280;56298;49.246;9.410;2023-06-26T11:40:35;99351.38;;;36.02
69186;BMP280;56298;49.246;9.410;2023-06-26T11:43:01;99336.31;;;35.88
69186;BMP280;56298;49.246;9.410;2023-06-26T11:45:28;99350.53;;;36.20
69186;BMP280;56298;49.246;9.410;2023-06-26T11:47:55;99355.06;;;35.83
69186;BMP280;56298;49.246;9.410;2023-06-26T11:50:21;99343.03;;;36.04
69186;BMP280;56298;49.246;9.410;2023-06-26T11:52:53;99336.34;;;36.01
69186;BMP280;56298;49.246;9.410;2023-06-26T11:55:19;99336.34;;;36.01
69186;BMP280;56298;49.246;9.410;2023-06-26T11:57:48;99338.56;;;36.22
69186;BMP280;56298;49.246;9.410;2023-06-26T12:00:15;99343.59;;;36.16
69186;BMP280;56298;49.246;9.410;2023-06-26T12:02:41;99343.59;;;36.16
69186;BMP280;56298;49.246;9.410;2023-06-26T12:05:07;99338.28;;;36.06
69186;BMP280;56298;49.246;9.410;2023-06-26T12:07:32;99343.91;;;35.99
69186;BMP280;56298;49.246;9.410;2023-06-26T12:09:59;99344.34;;;35.19
69186;BMP280;56298;49.246;9.410;2023-06-26T12:12:25;99341.91;;;35.48
69186;BMP280;56298;49.246;9.410;2023-06-26T12:14:51;99341.91;;;35.48
69186;BMP280;56298;49.246;9.410;2023-06-26T12:17:17;99332.94;;;35.57
69186;BMP280;56298;49.246;9.410;2023-06-26T12:19:44;99334.00;;;35.54
69186;BMP280;56298;49.246;9.410;2023-06-26T12:22:10;99339.94;;;35.56
69186;BMP280;56298;49.246;9.410;2023-06-26T12:24:37;99339.09;;;35.74
69186;BMP280;56298;49.246;9.410;2023-06-26T12:27:09;99339.09;;;35.74
69186;BMP280;56298;49.246;9.410;2023-06-26T12:29:35;99333.06;;;35.65
69186;BMP280;56298;49.246;9.410;2023-06-26T12:32:00;99332.06;;;35.62
69186;BMP280;56298;49.246;9.410;2023-06-26T12:34:33;99332.06;;;35.62
69186;BMP280;56298;49.246;9.410;2023-06-26T12:39:47;99327.72;;;35.88
69186;BMP280;56298;49.246;9.410;2023-06-26T12:42:15;99327.72;;;35.88
69186;BMP280;56298;49.246;9.410;2023-06-26T12:44:40;99333.75;;;35.71
69186;BMP280;56298;49.246;9.410;2023-06-26T12:47:06;99322.59;;;35.54
69186;BMP280;56298;49.246;9.410;2023-06-26T12:49:36;99331.97;;;35.35
69186;BMP280;56298;49.246;9.410;2023-06-26T12:52:04;99331.97;;;35.35
69186;BMP280;56298;49.246;9.410;2023-06-26T12:54:30;99321.34;;;35.49
69186;BMP280;56298;49.246;9.410;2023-06-26T12:56:55;99330.50;;;35.28
69186;BMP280;56298;49.246;9.410;2023-06-26T12:59:21;99330.50;;;35.28
69186;BMP280;56298;49.246;9.410;2023-06-26T13:01:47;99334.00;;;35.54
69186;BMP280;56298;49.246;9.410;2023-06-26T13:04:15;99334.53;;;35.85
69186;BMP280;56298;49.246;9.410;2023-06-26T13:06:40;99331.38;;;36.02
69186;BMP280;56298;49.246;9.410;2023-06-26T13:09:06;99323.78;;;35.45
69186;BMP280;56298;49.246;9.410;2023-06-26T13:11:32;99335.34;;;35.53
69186;BMP280;56298;49.246;9.410;2023-06-26T13:14:01;99335.34;;;35.53
69186;BMP280;56298;49.246;9.410;2023-06-26T13:16:26;99334.28;;;35.37
69186;BMP280;56298;49.246;9.410;2023-06-26T13:18:52;99328.75;;;35.06
69186;BMP280;56298;49.246;9.410;2023-06-26T13:21:18;99334.44;;;35.06
69186;BMP280;56298;49.246;9.410;2023-06-26T13:23:44;99326.41;;;34.86
69186;BMP280;56298;49.246;9.410;2023-06-26T13:26:09;99331.13;;;35.02
69186;BMP280;56298;49.246;9.410;2023-06-26T13:28:36;99330.56;;;34.66
69186;BMP280;56298;49.246;9.410;2023-06-26T13:31:02;99331.47;;;34.55
69186;BMP280;56298;49.246;9.410;2023-06-26T13:33:28;99323.50;;;34.47
69186;BMP280;56298;49.246;9.410;2023-06-26T13:35:53;99328.16;;;34.70
69186;BMP280;56298;49.246;9.410;2023-06-26T13:38:23;99325.41;;;34.64
69186;BMP280;56298;49.246;9.410;2023-06-26T13:40:54;99324.75;;;34.96
69186;BMP280;56298;49.246;9.410;2023-06-26T13:43:26;99324.75;;;34.96
69186;BMP280;56298;49.246;9.410;2023-06-26T13:45:52;99318.25;;;34.76
69186;BMP280;56298;49.246;9.410;2023-06-26T13:48:18;99326.56;;;34.74
69186;BMP280;56298;49.246;9.410;2023-06-26T13:50:44;99317.34;;;34.43
69186;BMP280;56298;49.246;9.410;2023-06-26T13:53:09;99322.19;;;34.24
69186;BMP280;56298;49.246;9.410;2023-06-26T13:55:35;99319.47;;;34.37
69186;BMP280;56298;49.246;9.410;2023-06-26T13:58:00;99317.75;;;34.28
69186;BMP280;56298;49.246;9.410;2023-06-26T14:00:33;99319.03;;;34.33
69186;BMP280;56298;49.246;9.410;2023-06-26T14:03:05;99320.94;;;34.44
69186;BMP280;56298;49.246;9.410;2023-06-26T14:05:34;99322.19;;;34.24
69186;BMP280;56298;49.246;9.410;2023-06-26T14:08:02;99322.25;;;34.18
69186;BMP280;56298;49.246;9.410;2023-06-26T14:10:28;99323.59;;;34.42
69186;BMP280;56298;49.246;9.410;2023-06-26T14:12:53;99318.31;;;33.96
69186;BMP280;56298;49.246;9.410;2023-06-26T14:15:18;99328.69;;;33.94
69186;BMP280;56298;49.246;9.410;2023-06-26T14:17:44;99332.25;;;34.00
69186;BMP280;56298;49.246;9.410;2023-06-26T14:20:09;99328.94;;;34.21
69186;BMP280;56298;49.246;9.410;2023-06-26T14:22:38;99322.03;;;34.16
69186;BMP280;56298;49.246;9.410;2023-06-26T14:25:04;99335.66;;;33.98
69186;BMP280;56298;49.246;9.410;2023-06-26T14:27:29;99317.38;;;33.88
69186;BMP280;56298;49.246;9.410;2023-06-26T14:29:54;99330.06;;;33.87
69186;BMP280;56298;49.246;9.410;2023-06-26T14:32:20;99333.19;;;33.83
69186;BMP280;56298;49.246;9.410;2023-06-26T14:34:45;99326.22;;;33.79
69186;BMP280;56298;49.246;9.410;2023-06-26T14:37:10;99328.63;;;33.69
69186;BMP280;56298;49.246;9.410;2023-06-26T14:39:35;99331.53;;;33.63
69186;BMP280;56298;49.246;9.410;2023-06-26T14:42:04;99338.06;;;33.89
69186;BMP280;56298;49.246;9.410;2023-06-26T14:44:29;99329.91;;;33.74
69186;BMP280;56298;49.246;9.410;2023-06-26T14:46:54;99329.63;;;33.72
69186;BMP280;56298;49.246;9.410;2023-06-26T14:49:20;99327.78;;;33.80
69186;BMP280;56298;49.246;9.410;2023-06-26T14:51:45;99321.63;;;33.34
69186;BMP280;56298;49.246;9.410;2023-06-26T14:54:11;99335.16;;;33.16
69186;BMP280;56298;49.246;9.410;2023-06-26T14:56:36;99331.31;;;33.08
69186;BMP280;56298;49.246;9.410;2023-06-26T14:59:01;99326.47;;;32.97
69186;BMP280;56298;49.246;9.410;2023-06-26T15:01:26;99333.66;;;33.10
69186;BMP280;56298;49.246;9.410;2023-06-26T15:03:52;99338.88;;;33.00
69186;BMP280;56298;49.246;9.410;2023-06-26T15:06:17;99336.16;;;33.25
69186;BMP280;56298;49.246;9.410;2023-06-26T15:08:42;99335.75;;;33.04
69186;BMP280;56298;49.246;9.410;2023-06-26T15:11:07;99338.59;;;33.04
69186;BMP280;56298;49.246;9.410;2023-06-26T15:13:33;99336.06;;;32.94
69186;BMP280;56298;49.246;9.410;2023-06-26T15:15:58;99333.75;;;32.81
69186;BMP280;56298;49.246;9.410;2023-06-26T15:18:23;99345.41;;;32.78
69186;BMP280;56298;49.246;9.410;2023-06-26T15:20:48;99348.31;;;32.44
69186;BMP280;56298;49.246;9.410;2023-06-26T15:23:14;99357.09;;;32.46